createdAt,value
2023-05-18T06:21:41.275Z,7.14
2023-05-18T06:31:41.384Z,7.38
2023-05-18T06:41:41.293Z,7.93
2023-05-18T06:51:41.262Z,8.08
2023-05-18T07:01:41.572Z,7.96
2023-05-18T07:11:41.283Z,8.68
2023-05-18T07:21:41.458Z,8.71
2023-05-18T07:31:41.419Z,9.00
2023-05-18T07:41:41.479Z,9.30
2023-05-18T07:51:41.443Z,10.14
2023-05-18T08:01:41.554Z,9.50
2023-05-18T08:11:41.370Z,10.71
2023-05-18T08:21:41.331Z,10.65
2023-05-18T08:31:41.368Z,10.17
2023-05-18T08:41:41.571Z,11.81
2023-05-18T08:51:41.648Z,10.63
2023-05-18T09:01:41.947Z,11.66
2023-05-18T09:11:41.966Z,10.98
2023-05-18T09:21:41.937Z,11.68
2023-05-18T09:31:41.818Z,12.26
2023-05-18T09:41:41.771Z,12.65
2023-05-18T09:51:41.849Z,10.95
2023-05-18T10:01:41.796Z,11.26
2023-05-18T10:11:41.872Z,12.35
2023-05-18T10:21:41.834Z,11.89
2023-05-18T10:31:41.897Z,11.30
2023-05-18T10:41:41.753Z,13.28
2023-05-18T10:51:41.926Z,12.67
2023-05-18T11:01:42.199Z,12.92
2023-05-18T11:11:42.061Z,13.67
2023-05-18T11:21:41.819Z,14.48
2023-05-18T11:31:42.132Z,14.02
2023-05-18T11:41:42.045Z,13.41
2023-05-18T11:51:42.112Z,13.60
2023-05-18T12:01:42.079Z,15.08
2023-05-18T12:11:41.955Z,15.58
2023-05-18T12:21:42.102Z,13.31
2023-05-18T12:31:42.000Z,14.71
2023-05-18T12:41:42.233Z,14.23
2023-05-18T12:51:41.991Z,14.30
2023-05-18T13:01:42.108Z,14.17
2023-05-18T13:11:42.158Z,14.10
2023-05-18T13:21:42.092Z,14.65
2023-05-18T13:31:42.192Z,14.51
2023-05-18T13:41:42.029Z,14.35
2023-05-18T13:51:42.092Z,14.65
2023-05-18T14:01:42.279Z,14.80
2023-05-18T14:11:42.041Z,14.95
2023-05-18T14:21:42.201Z,15.54
2023-05-18T14:31:42.256Z,15.03
2023-05-18T14:41:42.057Z,14.71
2023-05-18T14:51:41.977Z,14.12
2023-05-18T15:01:42.109Z,14.66
2023-05-18T15:11:42.109Z,14.65
2023-05-18T15:21:42.185Z,15.08
2023-05-18T15:31:42.090Z,15.00
2023-05-18T15:41:42.415Z,15.49
2023-05-18T15:51:42.171Z,14.88
2023-05-18T16:01:42.297Z,14.43
2023-05-18T16:11:42.413Z,14.48
2023-05-18T16:21:42.181Z,14.38
2023-05-18T16:31:42.170Z,14.74
2023-05-18T16:41:42.101Z,15.01
2023-05-18T16:51:42.182Z,14.96
2023-05-18T17:01:42.372Z,15.05
2023-05-18T17:11:42.198Z,15.11
2023-05-18T17:21:42.152Z,14.83
2023-05-18T17:31:43.385Z,14.31
2023-05-18T17:41:42.206Z,14.09
2023-05-18T17:51:42.376Z,13.87
2023-05-18T18:01:42.363Z,13.73
2023-05-18T18:12:00.628Z,13.57
2023-05-18T18:22:14.804Z,13.47
2023-05-18T18:31:59.115Z,13.45
2023-05-18T18:41:59.091Z,13.21
2023-05-18T18:51:59.000Z,12.88
2023-05-18T19:01:58.997Z,12.53
2023-05-18T19:11:59.117Z,11.83
2023-05-18T19:21:59.147Z,10.72
